createdAt,value
2023-05-21T00:02:00.198Z,13.60
2023-05-21T00:04:29.905Z,13.50
2023-05-21T00:06:58.983Z,13.50
2023-05-21T00:09:26.778Z,13.50
2023-05-21T00:11:54.638Z,13.50
2023-05-21T00:14:22.373Z,13.60
2023-05-21T00:16:50.328Z,13.80
2023-05-21T00:19:18.374Z,13.80
2023-05-21T00:21:46.499Z,13.90
2023-05-21T00:24:14.409Z,13.90
2023-05-21T00:26:42.937Z,13.90
2023-05-21T00:29:10.897Z,14.00
2023-05-21T00:31:38.986Z,14.10
2023-05-21T00:34:07.128Z,14.00
2023-05-21T00:36:35.136Z,14.00
2023-05-21T00:39:04.692Z,14.00
2023-05-21T00:41:32.661Z,14.00
2023-05-21T00:44:00.554Z,13.90
2023-05-21T00:46:31.606Z,13.80
2023-05-21T00:49:02.070Z,13.80
2023-05-21T00:51:31.016Z,13.80
2023-05-21T00:53:59.581Z,13.80
2023-05-21T00:56:29.108Z,13.90
2023-05-21T00:58:58.504Z,13.90
2023-05-21T01:01:27.825Z,14.00
2023-05-21T01:03:58.017Z,14.00
2023-05-21T01:06:26.335Z,14.00
2023-05-21T01:08:56.536Z,14.00
2023-05-21T01:11:50.285Z,14.00
2023-05-21T01:14:20.852Z,14.10
2023-05-21T01:16:52.568Z,14.10
2023-05-21T01:19:24.502Z,14.00
2023-05-21T01:22:07.387Z,14.00
2023-05-21T01:24:36.585Z,14.00
2023-05-21T01:27:07.851Z,14.00
2023-05-21T01:29:36.065Z,14.00
2023-05-21T01:32:34.830Z,13.90
2023-05-21T01:35:17.849Z,13.90
2023-05-21T01:38:34.322Z,13.80
2023-05-21T01:41:13.378Z,13.80
2023-05-21T01:43:47.588Z,14.00
2023-05-21T01:46:25.946Z,13.90
2023-05-21T01:48:57.052Z,13.90
2023-05-21T01:51:27.249Z,13.90
2023-05-21T01:53:55.595Z,13.90
2023-05-21T01:56:26.001Z,13.80
2023-05-21T01:58:53.925Z,13.90
2023-05-21T02:01:21.839Z,13.70
2023-05-21T02:03:49.680Z,13.70
2023-05-21T02:06:17.901Z,13.70
2023-05-21T02:08:45.900Z,13.80
2023-05-21T02:11:14.514Z,13.70
2023-05-21T02:13:43.090Z,13.80
2023-05-21T02:16:15.039Z,13.70
2023-05-21T02:18:44.089Z,13.70
2023-05-21T02:21:12.612Z,13.70
2023-05-21T02:23:42.305Z,13.70
2023-05-21T02:26:10.578Z,13.70
2023-05-21T02:28:39.192Z,13.60
2023-05-21T02:31:07.353Z,13.70
2023-05-21T02:33:35.262Z,13.70
2023-05-21T02:36:04.202Z,13.60
2023-05-21T02:38:32.757Z,13.60
2023-05-21T02:41:00.806Z,13.50
2023-05-21T02:43:28.582Z,13.70
2023-05-21T02:45:56.762Z,13.70
2023-05-21T02:48:24.795Z,13.60
2023-05-21T02:50:52.916Z,13.50
2023-05-21T02:53:20.824Z,13.40
2023-05-21T02:55:48.766Z,13.40
2023-05-21T02:58:16.751Z,13.30
2023-05-21T03:00:45.250Z,13.20
2023-05-21T03:03:13.478Z,13.20
2023-05-21T03:05:42.489Z,13.30
2023-05-21T03:08:10.634Z,13.30
2023-05-21T03:10:38.275Z,13.30
2023-05-21T03:13:09.608Z,13.10
2023-05-21T03:15:39.384Z,13.10
2023-05-21T03:18:07.723Z,13.20
2023-05-21T03:20:35.914Z,13.20
2023-05-21T03:23:04.550Z,13.30
2023-05-21T03:25:32.552Z,13.30
2023-05-21T03:28:00.556Z,13.20
2023-05-21T03:30:46.590Z,13.20
2023-05-21T03:33:32.972Z,13.20
2023-05-21T03:36:03.562Z,13.20
2023-05-21T03:38:37.090Z,13.30
2023-05-21T03:41:08.822Z,13.20
2023-05-21T03:43:37.310Z,13.30
2023-05-21T03:46:05.740Z,13.30
2023-05-21T03:49:06.338Z,13.20
2023-05-21T03:51:38.700Z,13.20
2023-05-21T03:54:08.360Z,13.20
2023-05-21T03:56:39.402Z,13.30
2023-05-21T03:59:07.703Z,13.30
2023-05-21T04:01:36.667Z,13.30
2023-05-21T04:04:05.903Z,13.20
2023-05-21T04:06:34.484Z,13.20
2023-05-21T04:09:02.502Z,13.20
2023-05-21T04:11:31.632Z,13.30
2023-05-21T04:13:59.673Z,13.40
2023-05-21T04:16:27.984Z,13.30
2023-05-21T04:18:56.121Z,13.40
2023-05-21T04:21:26.804Z,13.30
2023-05-21T04:23:57.627Z,13.40
2023-05-21T04:26:45.172Z,13.40
2023-05-21T04:29:13.589Z,13.40
2023-05-21T04:31:41.419Z,13.30
2023-05-21T04:34:09.893Z,13.30
2023-05-21T04:36:38.012Z,13.40
2023-05-21T04:39:07.485Z,13.40
2023-05-21T04:41:36.913Z,13.30
2023-05-21T04:44:08.680Z,13.30
2023-05-21T04:46:39.652Z,13.30
2023-05-21T04:49:10.686Z,13.30
2023-05-21T04:51:40.191Z,13.30
2023-05-21T04:54:08.507Z,13.50
2023-05-21T04:56:36.630Z,13.50
2023-05-21T04:59:05.586Z,13.50
2023-05-21T05:01:35.495Z,13.50
2023-05-21T05:04:04.505Z,13.50
2023-05-21T05:06:32.874Z,13.60
2023-05-21T05:09:00.768Z,13.60
2023-05-21T05:11:28.712Z,13.50
2023-05-21T05:13:57.321Z,13.50
2023-05-21T05:16:26.255Z,13.50
2023-05-21T05:18:57.389Z,13.60
2023-05-21T05:21:25.392Z,13.60
2023-05-21T05:23:53.620Z,13.80
2023-05-21T05:26:27.138Z,13.80
2023-05-21T05:28:56.008Z,13.90
2023-05-21T05:31:27.928Z,13.90
2023-05-21T05:33:59.462Z,14.00
2023-05-21T05:36:29.832Z,13.90
2023-05-21T05:38:57.934Z,14.10
2023-05-21T05:41:26.780Z,14.30
2023-05-21T05:43:55.055Z,14.30
2023-05-21T05:46:27.178Z,14.30
2023-05-21T05:48:55.301Z,14.40
2023-05-21T05:51:23.168Z,14.40
2023-05-21T05:53:51.872Z,14.50
2023-05-21T05:56:19.787Z,14.60
2023-05-21T05:58:48.381Z,14.80
2023-05-21T06:01:18.866Z,14.90
2023-05-21T06:03:47.511Z,15.00
2023-05-21T06:06:18.594Z,15.00
2023-05-21T06:08:46.734Z,15.10
2023-05-21T06:11:17.388Z,15.20
2023-05-21T06:13:46.558Z,15.20
2023-05-21T06:16:16.146Z,15.00
2023-05-21T06:18:44.247Z,15.00
2023-05-21T06:21:12.024Z,15.10
2023-05-21T06:23:40.492Z,15.20
2023-05-21T06:26:08.694Z,15.30
2023-05-21T06:28:37.069Z,15.60
2023-05-21T06:31:06.302Z,15.70
2023-05-21T06:33:36.453Z,15.80
2023-05-21T06:36:05.045Z,15.80
2023-05-21T06:38:33.046Z,15.90
2023-05-21T06:41:04.365Z,15.90
2023-05-21T06:43:45.419Z,16.10
2023-05-21T06:46:32.317Z,16.20
2023-05-21T06:49:01.589Z,16.50
2023-05-21T06:51:30.220Z,16.50
2023-05-21T06:53:58.180Z,16.70
2023-05-21T06:56:26.740Z,16.80
2023-05-21T06:58:56.575Z,16.90
2023-05-21T07:01:25.151Z,17.40
2023-05-21T07:03:53.361Z,17.90
2023-05-21T07:06:21.217Z,18.20
2023-05-21T07:08:50.110Z,18.70
2023-05-21T07:11:18.340Z,18.70
2023-05-21T07:13:46.920Z,18.40
2023-05-21T07:16:18.112Z,18.10
2023-05-21T07:18:49.167Z,17.80
2023-05-21T07:21:17.091Z,17.90
2023-05-21T07:23:46.663Z,17.80
2023-05-21T07:26:14.547Z,18.00
2023-05-21T07:28:42.530Z,18.20
2023-05-21T07:31:12.434Z,18.20
2023-05-21T07:33:45.400Z,18.20
2023-05-21T07:36:14.421Z,18.60
2023-05-21T07:38:43.552Z,19.00
2023-05-21T07:41:11.459Z,19.40
2023-05-21T07:43:40.879Z,20.00
2023-05-21T07:46:10.074Z,20.70
2023-05-21T07:48:38.552Z,21.10
2023-05-21T07:51:06.700Z,21.70
2023-05-21T07:53:34.688Z,22.00
2023-05-21T07:56:06.786Z,21.90
2023-05-21T07:58:36.459Z,22.30
2023-05-21T08:01:04.372Z,22.60
2023-05-21T08:03:33.925Z,22.70
2023-05-21T08:06:02.359Z,23.40
2023-05-21T08:08:30.517Z,24.00
2023-05-21T08:10:59.341Z,23.90
2023-05-21T08:13:28.651Z,23.80
2023-05-21T08:15:56.893Z,23.50
2023-05-21T08:18:25.646Z,22.90
2023-05-21T08:20:56.852Z,22.00
2023-05-21T08:23:27.405Z,21.90
2023-05-21T08:25:57.507Z,21.40
2023-05-21T08:28:27.920Z,21.10
2023-05-21T08:30:57.440Z,21.30
2023-05-21T08:33:26.037Z,21.10
2023-05-21T08:35:54.652Z,20.70
2023-05-21T08:38:22.490Z,20.40
2023-05-21T08:41:10.157Z,20.40
2023-05-21T08:43:39.841Z,20.50
2023-05-21T08:46:10.173Z,20.40
2023-05-21T08:48:42.088Z,20.50
2023-05-21T08:51:10.182Z,20.60
2023-05-21T08:53:45.993Z,20.70
2023-05-21T08:56:19.451Z,21.20
2023-05-21T08:58:52.829Z,21.20
2023-05-21T09:01:26.735Z,21.40
2023-05-21T09:04:16.277Z,21.80
2023-05-21T09:06:50.088Z,22.00
2023-05-21T09:09:42.139Z,22.20
2023-05-21T09:12:10.787Z,21.90
2023-05-21T09:14:41.442Z,21.70
2023-05-21T09:17:15.976Z,21.50
2023-05-21T09:20:16.145Z,21.50
2023-05-21T09:22:56.380Z,21.60
2023-05-21T09:25:30.085Z,21.60
2023-05-21T09:28:02.715Z,21.80
2023-05-21T09:30:32.589Z,22.20
2023-05-21T09:33:04.249Z,22.30
2023-05-21T09:35:34.536Z,22.60
2023-05-21T09:38:09.728Z,22.90
2023-05-21T09:40:46.787Z,22.80
2023-05-21T09:43:17.339Z,22.70
2023-05-21T09:45:59.706Z,22.30
2023-05-21T09:48:42.587Z,22.30
2023-05-21T09:51:21.427Z,22.40
2023-05-21T09:53:58.342Z,22.70
2023-05-21T09:56:32.596Z,22.30
2023-05-21T09:59:06.990Z,22.00
2023-05-21T10:01:36.313Z,22.10
2023-05-21T10:04:09.249Z,22.50
2023-05-21T10:06:45.532Z,22.30
2023-05-21T10:09:19.988Z,22.50
2023-05-21T10:11:54.572Z,22.70
2023-05-21T10:14:30.547Z,22.20
2023-05-21T10:17:00.972Z,22.20
2023-05-21T10:19:33.152Z,22.30
2023-05-21T10:22:04.724Z,22.50
2023-05-21T10:24:35.023Z,22.20
2023-05-21T10:27:05.026Z,22.00
2023-05-21T10:29:37.232Z,22.20
2023-05-21T10:32:07.311Z,22.30
2023-05-21T10:34:38.816Z,22.30
2023-05-21T10:37:10.529Z,22.70
2023-05-21T10:39:40.691Z,22.60
2023-05-21T10:43:17.501Z,22.50
2023-05-21T10:46:32.254Z,22.70
2023-05-21T10:50:14.736Z,22.80
2023-05-21T10:53:32.481Z,22.60
2023-05-21T10:56:36.856Z,22.90
2023-05-21T10:59:42.216Z,23.10
2023-05-21T11:02:15.787Z,23.00
2023-05-21T11:04:49.415Z,22.90
2023-05-21T11:07:56.894Z,22.60
2023-05-21T11:10:44.603Z,22.70
2023-05-21T11:13:22.288Z,23.10
2023-05-21T11:15:59.463Z,23.10
2023-05-21T11:18:36.056Z,23.00
2023-05-21T11:21:18.186Z,22.60
2023-05-21T11:24:05.115Z,22.30
2023-05-21T11:26:58.696Z,22.60
2023-05-21T11:29:46.337Z,23.00
2023-05-21T11:32:17.518Z,22.90
2023-05-21T11:34:48.492Z,23.10
2023-05-21T11:37:26.972Z,23.10
2023-05-21T11:39:57.159Z,22.90
2023-05-21T11:42:42.431Z,22.80
2023-05-21T11:45:11.516Z,22.70
2023-05-21T11:47:44.397Z,22.80
2023-05-21T11:50:17.626Z,22.80
2023-05-21T11:52:46.514Z,22.70
2023-05-21T11:55:18.141Z,22.60
2023-05-21T11:57:48.189Z,23.10
2023-05-21T12:00:18.411Z,23.10
2023-05-21T12:02:53.998Z,22.80
2023-05-21T12:05:23.135Z,23.10
2023-05-21T12:07:51.448Z,23.30
2023-05-21T12:10:24.322Z,23.70
2023-05-21T12:12:56.803Z,23.70
2023-05-21T12:15:27.785Z,23.90
2023-05-21T12:17:56.418Z,23.80
2023-05-21T12:20:28.759Z,23.90
2023-05-21T12:22:59.306Z,23.80
2023-05-21T12:25:30.050Z,23.70
2023-05-21T12:27:58.931Z,23.80
2023-05-21T12:30:28.424Z,23.80
2023-05-21T12:33:00.122Z,24.00
2023-05-21T12:35:28.367Z,24.40
2023-05-21T12:37:56.860Z,24.60
2023-05-21T12:40:39.583Z,24.40
2023-05-21T12:43:08.614Z,24.40
2023-05-21T12:45:39.675Z,24.10
2023-05-21T12:48:07.865Z,24.20
2023-05-21T12:50:41.959Z,24.40
2023-05-21T12:53:12.544Z,24.20
2023-05-21T12:55:40.809Z,24.00
2023-05-21T12:58:09.442Z,23.60
2023-05-21T13:00:38.110Z,23.50
2023-05-21T13:03:07.043Z,23.40
2023-05-21T13:05:35.873Z,23.50
2023-05-21T13:08:04.108Z,23.50
2023-05-21T13:10:32.536Z,23.70
2023-05-21T13:13:00.461Z,23.80
2023-05-21T13:15:28.286Z,23.90
2023-05-21T13:17:57.872Z,23.90
2023-05-21T13:20:27.702Z,23.90
2023-05-21T13:22:55.927Z,23.80
2023-05-21T13:25:32.630Z,23.80
2023-05-21T13:28:05.692Z,23.90
2023-05-21T13:30:33.897Z,23.80
2023-05-21T13:33:02.182Z,23.90
2023-05-21T13:35:34.845Z,23.90
2023-05-21T13:38:02.734Z,23.90
2023-05-21T13:40:30.460Z,24.10
2023-05-21T13:42:58.762Z,24.30
2023-05-21T13:45:29.375Z,24.20
2023-05-21T13:47:58.363Z,24.20
2023-05-21T13:50:26.493Z,24.00
2023-05-21T13:52:54.401Z,23.90
2023-05-21T13:55:22.225Z,23.60
2023-05-21T13:57:49.939Z,23.60
2023-05-21T14:00:17.825Z,23.70
2023-05-21T14:02:45.911Z,23.90
2023-05-21T14:05:14.169Z,23.80
2023-05-21T14:07:42.983Z,24.00
2023-05-21T14:10:11.921Z,23.80
2023-05-21T14:12:40.981Z,23.80
2023-05-21T14:15:10.842Z,23.90
2023-05-21T14:17:40.736Z,23.80
2023-05-21T14:20:10.330Z,23.90
2023-05-21T14:22:38.890Z,23.90
2023-05-21T14:25:07.666Z,23.90
2023-05-21T14:27:37.973Z,23.90
2023-05-21T14:30:07.370Z,23.80
2023-05-21T14:32:35.189Z,24.00
2023-05-21T14:35:03.313Z,23.80
2023-05-21T14:37:30.987Z,23.80
2023-05-21T14:39:58.753Z,23.80
2023-05-21T14:42:26.439Z,23.90
2023-05-21T14:44:54.235Z,24.10
2023-05-21T14:47:22.215Z,24.20
2023-05-21T14:49:51.589Z,24.20
2023-05-21T14:52:19.753Z,24.30
2023-05-21T14:54:47.643Z,24.30
2023-05-21T14:57:15.518Z,24.20
2023-05-21T14:59:43.494Z,24.50
2023-05-21T15:02:11.655Z,24.60
2023-05-21T15:04:39.786Z,24.90
2023-05-21T15:07:07.614Z,24.60
2023-05-21T15:09:35.418Z,24.60
2023-05-21T15:12:03.205Z,24.70
2023-05-21T15:14:30.988Z,24.80
2023-05-21T15:16:58.669Z,25.00
2023-05-21T15:19:26.559Z,25.20
2023-05-21T15:21:54.493Z,25.10
2023-05-21T15:24:22.306Z,25.40
2023-05-21T15:26:50.123Z,25.60
2023-05-21T15:29:17.870Z,25.80
2023-05-21T15:31:45.624Z,25.70
2023-05-21T15:34:13.820Z,25.70
2023-05-21T15:36:41.814Z,25.60
2023-05-21T15:39:09.563Z,25.70
2023-05-21T15:41:38.442Z,25.80
2023-05-21T15:44:06.386Z,26.10
2023-05-21T15:46:34.354Z,25.60
2023-05-21T15:49:02.290Z,25.50
2023-05-21T15:51:30.052Z,25.20
2023-05-21T15:53:59.121Z,25.10
2023-05-21T15:56:26.961Z,25.40
2023-05-21T15:58:56.375Z,25.50
2023-05-21T16:01:24.396Z,25.80
2023-05-21T16:03:52.134Z,25.80
2023-05-21T16:06:20.123Z,25.50
2023-05-21T16:08:48.634Z,25.50
2023-05-21T16:11:16.789Z,25.10
2023-05-21T16:13:44.721Z,25.00
2023-05-21T16:16:12.558Z,25.00
2023-05-21T16:18:40.393Z,25.10
2023-05-21T16:21:08.383Z,25.20
2023-05-21T16:23:38.643Z,25.10
2023-05-21T16:26:10.393Z,24.80
2023-05-21T16:28:38.460Z,24.60
2023-05-21T16:31:06.830Z,24.40
2023-05-21T16:33:36.946Z,24.40
2023-05-21T16:36:05.705Z,24.20
2023-05-21T16:38:33.583Z,24.10
2023-05-21T16:41:01.758Z,23.90
2023-05-21T16:43:29.609Z,23.80
2023-05-21T16:45:57.543Z,23.80
2023-05-21T16:48:25.541Z,23.60
2023-05-21T16:50:53.496Z,23.60
2023-05-21T16:53:21.541Z,23.70
2023-05-21T16:55:49.349Z,23.70
2023-05-21T16:58:17.394Z,23.60
2023-05-21T17:00:46.507Z,23.60
2023-05-21T17:03:14.646Z,23.70
2023-05-21T17:05:43.083Z,23.70
2023-05-21T17:08:10.996Z,23.80
2023-05-21T17:10:38.888Z,23.80
2023-05-21T17:13:20.862Z,23.90
2023-05-21T17:15:51.995Z,24.00
2023-05-21T17:18:19.880Z,24.10
2023-05-21T17:20:47.913Z,24.10
2023-05-21T17:23:16.159Z,24.10
2023-05-21T17:25:44.266Z,24.10
2023-05-21T17:28:12.099Z,24.20
2023-05-21T17:30:40.663Z,24.30
2023-05-21T17:33:11.005Z,24.20
2023-05-21T17:35:39.357Z,24.10
2023-05-21T17:38:07.303Z,24.10
2023-05-21T17:40:35.706Z,24.30
2023-05-21T17:43:04.400Z,24.20
2023-05-21T17:45:32.333Z,24.20
2023-05-21T17:48:00.673Z,24.40
2023-05-21T17:50:28.878Z,24.30
2023-05-21T17:52:57.338Z,24.10
2023-05-21T17:55:25.103Z,23.90
2023-05-21T17:57:53.032Z,23.80
2023-05-21T18:00:21.498Z,23.70
2023-05-21T18:02:49.539Z,23.70
2023-05-21T18:05:17.545Z,23.70
2023-05-21T18:07:45.531Z,23.50
2023-05-21T18:10:15.507Z,23.40
2023-05-21T18:12:46.338Z,23.40
2023-05-21T18:15:15.712Z,23.20
2023-05-21T18:17:43.809Z,23.20
2023-05-21T18:20:13.382Z,23.00
2023-05-21T18:22:41.289Z,22.70
2023-05-21T18:25:10.825Z,22.80
2023-05-21T18:27:39.093Z,22.60
2023-05-21T18:30:08.961Z,22.50
2023-05-21T18:32:39.844Z,22.40
2023-05-21T18:35:14.367Z,22.30
2023-05-21T18:37:44.762Z,22.30
2023-05-21T18:40:14.166Z,22.30
2023-05-21T18:42:46.463Z,22.20
2023-05-21T18:45:15.319Z,22.20
2023-05-21T18:47:43.327Z,22.20
2023-05-21T18:50:15.426Z,22.20
2023-05-21T18:52:43.656Z,22.10
2023-05-21T18:55:11.553Z,22.10
2023-05-21T18:57:40.061Z,22.00
2023-05-21T19:00:09.993Z,21.90
2023-05-21T19:02:38.336Z,21.90
2023-05-21T19:05:08.485Z,21.80
2023-05-21T19:07:36.880Z,21.80
2023-05-21T19:10:06.731Z,21.80
2023-05-21T19:12:36.385Z,21.70
2023-05-21T19:15:06.091Z,21.70
2023-05-21T19:17:36.194Z,21.70
2023-05-21T19:20:12.749Z,21.70
2023-05-21T19:22:41.093Z,21.70
2023-05-21T19:25:09.636Z,21.70
2023-05-21T19:27:40.862Z,21.60
2023-05-21T19:30:10.255Z,21.50
2023-05-21T19:32:38.296Z,21.40
2023-05-21T19:35:09.606Z,21.40
2023-05-21T19:37:39.576Z,21.30
2023-05-21T19:40:09.783Z,21.30
2023-05-21T19:42:37.563Z,21.20
2023-05-21T19:45:09.730Z,21.20
2023-05-21T19:47:37.673Z,21.20
2023-05-21T19:50:10.265Z,21.20
2023-05-21T19:52:41.510Z,21.20
2023-05-21T19:55:11.133Z,21.10
2023-05-21T19:57:39.875Z,21.10
2023-05-21T20:00:10.558Z,21.00
2023-05-21T20:02:41.582Z,21.00
2023-05-21T20:05:10.335Z,21.00
2023-05-21T20:07:38.461Z,21.00
2023-05-21T20:10:09.829Z,21.00
2023-05-21T20:12:38.533Z,21.00
2023-05-21T20:15:07.896Z,20.90
2023-05-21T20:17:36.224Z,20.90
2023-05-21T20:20:10.414Z,20.90
2023-05-21T20:22:39.131Z,21.10
2023-05-21T20:25:13.175Z,21.20
2023-05-21T20:27:42.401Z,21.20
2023-05-21T20:30:11.586Z,21.10
2023-05-21T20:32:39.798Z,21.00
2023-05-21T20:35:10.912Z,21.00
2023-05-21T20:37:39.127Z,21.10
2023-05-21T20:40:09.334Z,21.10
2023-05-21T20:42:37.408Z,21.10
2023-05-21T20:45:06.254Z,21.30
2023-05-21T20:47:34.356Z,21.20
2023-05-21T20:50:05.435Z,21.20
2023-05-21T20:52:33.250Z,21.10
2023-05-21T20:55:04.555Z,21.00
2023-05-21T20:57:32.951Z,20.90
2023-05-21T21:00:01.016Z,20.80
2023-05-21T21:02:29.220Z,20.70
2023-05-21T21:04:58.024Z,20.60
2023-05-21T21:07:25.993Z,20.40
2023-05-21T21:09:53.783Z,20.30
2023-05-21T21:12:26.666Z,20.10
2023-05-21T21:14:55.615Z,20.10
2023-05-21T21:17:24.021Z,20.00
2023-05-21T21:19:52.027Z,19.90
2023-05-21T21:22:20.270Z,19.80
2023-05-21T21:24:48.618Z,19.90
2023-05-21T21:27:16.311Z,19.70
2023-05-21T21:29:45.921Z,19.60
2023-05-21T21:32:13.978Z,19.50
2023-05-21T21:34:41.703Z,19.30
2023-05-21T21:37:09.763Z,19.20
2023-05-21T21:39:37.561Z,19.20
2023-05-21T21:42:05.937Z,19.50
2023-05-21T21:44:33.758Z,19.60
2023-05-21T21:47:01.503Z,19.60
2023-05-21T21:49:29.530Z,19.60
2023-05-21T21:51:58.041Z,19.50
2023-05-21T21:54:27.824Z,19.50
2023-05-21T21:56:55.874Z,19.30
2023-05-21T21:59:23.810Z,19.20
2023-05-21T22:01:51.706Z,19.10
2023-05-21T22:04:19.621Z,19.00
2023-05-21T22:06:48.453Z,18.90
2023-05-21T22:09:17.747Z,18.90
2023-05-21T22:11:45.917Z,18.90
2023-05-21T22:14:13.721Z,18.90
2023-05-21T22:16:41.808Z,18.90
2023-05-21T22:19:10.266Z,19.00
2023-05-21T22:21:38.389Z,19.00
2023-05-21T22:24:09.494Z,19.10
2023-05-21T22:26:40.641Z,19.10
2023-05-21T22:29:08.603Z,19.10
2023-05-21T22:31:36.500Z,19.10
2023-05-21T22:34:04.338Z,19.20
2023-05-21T22:36:32.234Z,19.10
2023-05-21T22:39:00.042Z,19.20
2023-05-21T22:41:27.807Z,19.10
2023-05-21T22:43:55.814Z,19.00
2023-05-21T22:46:23.718Z,19.00
2023-05-21T22:48:51.865Z,18.90
2023-05-21T22:51:19.937Z,19.00
2023-05-21T22:53:47.790Z,18.80
2023-05-21T22:56:15.592Z,18.50
2023-05-21T22:58:43.470Z,17.90
2023-05-21T23:01:11.364Z,17.60
2023-05-21T23:03:39.316Z,17.40
2023-05-21T23:06:07.446Z,17.40
2023-05-21T23:08:35.329Z,17.30
2023-05-21T23:11:03.188Z,17.10
2023-05-21T23:13:31.244Z,17.00
2023-05-21T23:15:59.642Z,17.00
2023-05-21T23:18:27.760Z,17.10
2023-05-21T23:20:55.954Z,17.00
2023-05-21T23:23:23.933Z,16.90
2023-05-21T23:25:53.208Z,16.90
2023-05-21T23:28:21.126Z,16.80
2023-05-21T23:30:49.604Z,16.60
2023-05-21T23:33:18.203Z,16.50
2023-05-21T23:35:45.864Z,16.40
2023-05-21T23:38:13.755Z,16.40
2023-05-21T23:40:42.221Z,16.30
2023-05-21T23:43:10.137Z,16.30
2023-05-21T23:45:38.747Z,16.20
2023-05-21T23:48:07.673Z,16.30
2023-05-21T23:50:36.522Z,16.20
2023-05-21T23:53:04.341Z,16.20
2023-05-21T23:55:32.425Z,16.20
2023-05-21T23:58:00.224Z,16.30
